Opelika, AL

6:08 AM CST on March 03, 2015 (GMT -0600)
Columbus Metro | Change Station
CLOSE
Current Station
Airport
Location: Columbus,
Elevation: 397 ft
Nearby Weather Stations
Active Advisory: Dense Fog Advisory

Elev 397 ft 32.52 °N, 84.94 °W | Updated 17 minutes ago

Overcast
Overcast
58 °F
Feels Like 58 °F
N
5
Wind Variable Wind from East

Today
High -- | Low -- °F
--% Chance of Precip.
Yesterday
High -- | Low -- °F
Precip. -- in
6:07 AM 5:40 PM
Waxing Gibbous, 95% visible
Pressure 30.19 in
Visibility 5.0 miles
Clouds Overcast 300 ft
Dew Point 57 °F
Humidity 97%
Rainfall 0.01 in
Snow Depth Not available.
UV 0 out of 12
Pollen 8.10 out of 12
Air Quality Not available.
Flu Activity Not available.
METAR KCSG 031151Z AUTO 08004KT 5SM BR OVC003 14/14 A3019 RMK AO2 SLP221 60001 70001 T01440139 10161 20144 53001

More Conditions Fewer Conditions

Pressure 30.19 in
Visibility 5.0 miles
Clouds Overcast 300 ft
Dew Point 57 °F
Humidity 97%
Rainfall 0.01 in
Snow Depth Not available.
UV 0 out of 12
Pollen 8.10 out of 12
Air Quality Not available.
Flu Activity Not available.
METAR KCSG 031151Z AUTO 08004KT 5SM BR OVC003 14/14 A3019 RMK AO2 SLP221 60001 70001 T01440139 10161 20144 53001

More Conditions Fewer Conditions

10-Day Weather Forecast

Almanac

Astronomy

Mar. 03, 2015 Rise Set
Actual Time
Civil Twilight
Nautical Twilight
Astronomical Twilight
Moon
Length of Visible Light
Length of Day
Tomorrow will be .
, % of the Moon is Illuminated

Today's Extremes

State Highs State Lows

Community

WunderPhotos

Upload Photos

1,802,090 photos uploaded!

WunderBlogs® & News

Nearby

Air Quality

  Air Quality AQ Index Pollutant
Not available.

Snow Depth

Station Depth Elevation

Earthquake Activity

City Distance Mag. Time & Date
Minimum magnitude displayed is 2.5.

Coastal Water Temperatures

Place Temperature

Nearby Weather Stations

Dense Fog Advisory
Statement as of 5:19 AM CST on March 03, 2015

... Dense fog advisory remains in effect until 9 am CST this
morning...

* visibilities... one-quarter of a mile or less at times.

* Impacts... hazradous driving conditions due to reduced
visibilities.

Precautionary/preparedness actions...

A dense fog advisory means visibilities will frequently be
reduced to one quarter mile or less. If driving... slow down... use
your headlights... and leave plenty of distance ahead of you.